Time;durP1;ratioP1;P1;durP2;ratioP2;P2;SDS_P1;SDS_P2;PMS_P1;PMS_P2;Temp;Humidity;BMP_temperature;BMP_pressure;BME280_temperature;BME280_humidity;BME280_pressure;Samples;Min_cycle;Max_cycle;Signal;HPM_P1;HPM_P2
2023/04/07 00:02:15;;;;;;;;;7.00;7.00;;;;;;;;117892;1180;25192;-60
2023/04/07 00:04:44;;;;;;;;;5.00;4.00;;;;;;;;117932;1191;25588;-60
2023/04/07 00:07:13;;;;;;;;;8.00;6.33;;;;;;;;117933;1177;25302;-60
2023/04/07 00:09:41;;;;;;;;;7.25;6.00;;;;;;;;117942;1178;25436;-60
2023/04/07 00:12:10;;;;;;;;;6.00;6.00;;;;;;;;117947;1190;24896;-60
2023/04/07 00:14:38;;;;;;;;;7.75;6.25;;;;;;;;117903;1181;24714;-60
2023/04/07 00:17:07;;;;;;;;;5.00;4.75;;;;;;;;117938;1190;25687;-59
2023/04/07 00:19:35;;;;;;;;;7.75;6.00;;;;;;;;117904;1177;25080;-59
2023/04/07 00:22:04;;;;;;;;;4.67;4.00;;;;;;;;117922;1178;24930;-59
2023/04/07 00:24:32;;;;;;;;;6.00;6.00;;;;;;;;117963;1178;25300;-59
2023/04/07 00:27:02;;;;;;;;;8.25;8.00;;;;;;;;117896;1179;25007;-59
2023/04/07 00:29:30;;;;;;;;;7.33;7.33;;;;;;;;117936;1183;24715;-59
2023/04/07 00:31:58;;;;;;;;;9.00;6.00;;;;;;;;117899;1177;24830;-59
2023/04/07 00:34:27;;;;;;;;;7.00;7.00;;;;;;;;117930;1184;25526;-59
2023/04/07 00:36:55;;;;;;;;;6.25;6.25;;;;;;;;117950;1177;24856;-59
2023/04/07 00:39:26;;;;;;;;;6.00;5.00;;;;;;;;117837;1181;25014;-60
2023/04/07 00:41:55;;;;;;;;;6.00;6.00;;;;;;;;117954;1191;25163;-60
2023/04/07 00:44:23;;;;;;;;;11.50;7.00;;;;;;;;117893;1191;25103;-59
2023/04/07 00:46:52;;;;;;;;;8.50;7.00;;;;;;;;117841;1191;24824;-59
2023/04/07 00:49:21;;;;;;;;;7.00;6.00;;;;;;;;117941;1177;24850;-59
2023/04/07 00:51:50;;;;;;;;;6.00;6.00;;;;;;;;117966;1177;25134;-59
2023/04/07 00:54:18;;;;;;;;;4.00;3.00;;;;;;;;117913;1178;25233;-60
2023/04/07 00:56:46;;;;;;;;;5.00;4.67;;;;;;;;117949;1191;25591;-59
2023/04/07 00:59:15;;;;;;;;;7.50;6.00;;;;;;;;117940;1177;24856;-60
2023/04/07 01:02:10;;;;;;;;;8.00;7.00;;;;;;;;117943;1178;25573;-59
2023/04/07 01:04:55;;;;;;;;;10.50;6.00;;;;;;;;117907;1182;25029;-60
2023/04/07 01:07:29;;;;;;;;;7.50;7.00;;;;;;;;117894;1191;24983;-60
2023/04/07 01:10:04;;;;;;;;;10.00;6.00;;;;;;;;117832;1177;25809;-60
2023/04/07 01:12:39;;;;;;;;;8.00;6.00;;;;;;;;117927;1177;25196;-64
2023/04/07 01:15:10;;;;;;;;;9.00;6.50;;;;;;;;117929;1177;25232;-61
2023/04/07 01:17:42;;;;;;;;;8.00;5.00;;;;;;;;117869;1181;25612;-60
2023/04/07 01:20:17;;;;;;;;;6.75;6.75;;;;;;;;117971;1184;25319;-58
2023/04/07 01:22:48;;;;;;;;;5.00;4.25;;;;;;;;117953;1179;25257;-58
2023/04/07 01:25:31;;;;;;;;;5.33;5.33;;;;;;;;117957;1177;25138;-59
2023/04/07 01:28:00;;;;;;;;;5.00;4.25;;;;;;;;117974;1178;25115;-60
2023/04/07 01:30:32;;;;;;;;;5.00;5.00;;;;;;;;117823;1177;25524;-60
2023/04/07 01:33:01;;;;;;;;;4.67;4.67;;;;;;;;117925;1180;24986;-59
2023/04/07 01:35:32;;;;;;;;;7.00;6.00;;;;;;;;117922;1178;25291;-59
2023/04/07 01:38:02;;;;;;;;;4.67;4.67;;;;;;;;117929;1178;24884;-59
2023/04/07 01:40:32;;;;;;;;;3.67;3.67;;;;;;;;117945;1179;24952;-59
2023/04/07 01:43:01;;;;;;;;;8.33;7.00;;;;;;;;117924;1191;25124;-59
2023/04/07 01:45:31;;;;;;;;;7.00;5.50;;;;;;;;117950;1191;24806;-59
2023/04/07 01:47:59;;;;;;;;;5.50;5.50;;;;;;;;117961;1179;25031;-59
2023/04/07 01:50:29;;;;;;;;;5.75;3.50;;;;;;;;117952;1191;25229;-59
2023/04/07 01:52:57;;;;;;;;;6.33;5.00;;;;;;;;117950;1177;24917;-60
2023/04/07 01:55:25;;;;;;;;;5.25;5.25;;;;;;;;117918;1191;24966;-59
2023/04/07 01:57:54;;;;;;;;;6.50;5.00;;;;;;;;117910;1191;25311;-60
2023/04/07 02:00:23;;;;;;;;;10.50;5.50;;;;;;;;117924;1179;25195;-60
2023/04/07 02:02:54;;;;;;;;;7.33;6.00;;;;;;;;117857;1179;25204;-60
2023/04/07 02:05:23;;;;;;;;;5.00;4.50;;;;;;;;117900;1184;24993;-59
2023/04/07 02:07:57;;;;;;;;;7.00;5.00;;;;;;;;117962;1191;24932;-59
2023/04/07 02:10:27;;;;;;;;;4.00;3.00;;;;;;;;117965;1191;25068;-60
2023/04/07 02:12:57;;;;;;;;;3.67;3.67;;;;;;;;117934;1179;25122;-60
2023/04/07 02:15:26;;;;;;;;;8.33;6.67;;;;;;;;117896;1180;25243;-59
2023/04/07 02:17:57;;;;;;;;;9.67;5.00;;;;;;;;117966;1191;25240;-60
2023/04/07 02:20:27;;;;;;;;;8.25;6.50;;;;;;;;117950;1191;25073;-59
2023/04/07 02:22:56;;;;;;;;;5.00;5.00;;;;;;;;117937;1187;25168;-60
2023/04/07 02:25:27;;;;;;;;;6.50;6.00;;;;;;;;117988;1178;24708;-60
2023/04/07 02:27:57;;;;;;;;;8.50;6.00;;;;;;;;117935;1179;24916;-60
2023/04/07 02:30:27;;;;;;;;;3.67;3.67;;;;;;;;117957;1177;25025;-59
2023/04/07 02:32:55;;;;;;;;;5.00;4.00;;;;;;;;117954;1180;25017;-59
2023/04/07 02:35:24;;;;;;;;;4.00;4.00;;;;;;;;117909;1192;25201;-60
2023/04/07 02:37:52;;;;;;;;;6.00;6.00;;;;;;;;117900;1179;25014;-59
2023/04/07 02:40:21;;;;;;;;;6.67;4.33;;;;;;;;117892;1179;26048;-58
2023/04/07 02:42:49;;;;;;;;;5.00;5.00;;;;;;;;117934;1178;25541;-59
2023/04/07 02:45:18;;;;;;;;;8.75;5.25;;;;;;;;117938;1179;25179;-59
2023/04/07 02:47:46;;;;;;;;;5.25;2.00;;;;;;;;117920;1181;25030;-60
2023/04/07 02:50:15;;;;;;;;;5.50;5.50;;;;;;;;117809;1191;25510;-60
2023/04/07 02:52:43;;;;;;;;;3.33;3.33;;;;;;;;117907;1183;25361;-59
2023/04/07 02:55:12;;;;;;;;;5.33;4.00;;;;;;;;117898;1187;25033;-59
2023/04/07 02:57:40;;;;;;;;;7.67;4.67;;;;;;;;117894;1186;25636;-59
2023/04/07 03:00:09;;;;;;;;;7.33;6.00;;;;;;;;117886;1191;25523;-59
2023/04/07 03:02:38;;;;;;;;;6.00;5.00;;;;;;;;117909;1191;25621;-59
2023/04/07 03:05:07;;;;;;;;;5.00;3.75;;;;;;;;117929;1180;25025;-60
2023/04/07 03:07:35;;;;;;;;;7.25;4.50;;;;;;;;117937;1191;25393;-60
2023/04/07 03:10:05;;;;;;;;;3.00;3.00;;;;;;;;117888;1177;25482;-59
2023/04/07 03:12:33;;;;;;;;;6.00;5.25;;;;;;;;117888;1191;25566;-59
2023/04/07 03:15:01;;;;;;;;;5.50;5.00;;;;;;;;117855;1177;24851;-59
2023/04/07 03:17:30;;;;;;;;;4.00;4.00;;;;;;;;117870;1187;24899;-61
2023/04/07 03:19:58;;;;;;;;;6.50;5.00;;;;;;;;117941;1177;26387;-60
2023/04/07 03:22:27;;;;;;;;;7.00;6.00;;;;;;;;117917;1177;24863;-59
2023/04/07 03:24:55;;;;;;;;;5.00;4.50;;;;;;;;117916;1181;25061;-59
2023/04/07 03:27:24;;;;;;;;;4.75;4.00;;;;;;;;117927;1192;25152;-60
2023/04/07 03:29:52;;;;;;;;;4.50;4.50;;;;;;;;117925;1186;25646;-59
2023/04/07 03:32:20;;;;;;;;;6.00;6.00;;;;;;;;117924;1179;26390;-59
2023/04/07 03:34:49;;;;;;;;;5.00;5.00;;;;;;;;117836;1181;24963;-59
2023/04/07 03:37:17;;;;;;;;;5.00;5.00;;;;;;;;117841;1187;25204;-59
2023/04/07 03:39:46;;;;;;;;;5.00;4.00;;;;;;;;117927;1177;25403;-60
2023/04/07 03:42:15;;;;;;;;;6.00;4.25;;;;;;;;117935;1177;24800;-60
2023/04/07 03:44:43;;;;;;;;;4.75;4.75;;;;;;;;117944;1184;24951;-60
2023/04/07 03:47:12;;;;;;;;;5.00;3.33;;;;;;;;117960;1177;25605;-59
2023/04/07 03:49:40;;;;;;;;;6.00;5.00;;;;;;;;117936;1177;24704;-60
2023/04/07 03:52:08;;;;;;;;;5.25;4.75;;;;;;;;117958;1177;25327;-60
2023/04/07 03:54:37;;;;;;;;;4.75;4.00;;;;;;;;117937;1190;24721;-60
2023/04/07 03:57:05;;;;;;;;;6.00;6.00;;;;;;;;117957;1178;24848;-60
2023/04/07 03:59:34;;;;;;;;;6.00;5.00;;;;;;;;117890;1179;25761;-60
2023/04/07 04:02:03;;;;;;;;;6.33;5.33;;;;;;;;117926;1178;25579;-59
2023/04/07 04:04:31;;;;;;;;;4.50;3.25;;;;;;;;117924;1178;24726;-60
2023/04/07 04:07:00;;;;;;;;;5.00;5.00;;;;;;;;117937;1190;24719;-60
2023/04/07 04:09:29;;;;;;;;;5.50;5.00;;;;;;;;117961;1187;25401;-60
2023/04/07 04:11:57;;;;;;;;;5.50;4.25;;;;;;;;117835;1189;25476;-60
2023/04/07 04:14:26;;;;;;;;;8.50;3.00;;;;;;;;117819;1187;24797;-59
2023/04/07 04:16:54;;;;;;;;;5.33;4.33;;;;;;;;117870;1179;25539;-60
2023/04/07 04:19:23;;;;;;;;;6.00;5.25;;;;;;;;117897;1177;25381;-59
2023/04/07 04:21:51;;;;;;;;;5.25;3.25;;;;;;;;117950;1183;25537;-60
2023/04/07 04:24:20;;;;;;;;;6.00;4.25;;;;;;;;117908;1187;24755;-60
2023/04/07 04:26:48;;;;;;;;;4.33;4.33;;;;;;;;117829;1177;25427;-59
2023/04/07 04:29:17;;;;;;;;;6.00;2.00;;;;;;;;117832;1179;25605;-61
2023/04/07 04:31:45;;;;;;;;;5.00;3.33;;;;;;;;117889;1190;25612;-59
2023/04/07 04:34:14;;;;;;;;;6.00;5.00;;;;;;;;117949;1177;24772;-59
2023/04/07 04:36:42;;;;;;;;;6.50;5.00;;;;;;;;117968;1183;25458;-60
2023/04/07 04:39:11;;;;;;;;;7.25;5.00;;;;;;;;117957;1180;24827;-59
2023/04/07 04:41:39;;;;;;;;;4.67;4.67;;;;;;;;117901;1184;25176;-59
2023/04/07 04:44:07;;;;;;;;;6.00;4.50;;;;;;;;117877;1177;24970;-59
2023/04/07 04:46:36;;;;;;;;;9.67;5.00;;;;;;;;117941;1178;25349;-59
2023/04/07 04:49:05;;;;;;;;;4.75;4.75;;;;;;;;118005;1177;25218;-59
2023/04/07 04:51:34;;;;;;;;;6.00;5.00;;;;;;;;117936;1178;25552;-60
2023/04/07 04:54:05;;;;;;;;;4.00;4.00;;;;;;;;117936;1180;25390;-60
2023/04/07 04:56:33;;;;;;;;;5.00;4.00;;;;;;;;117946;1186;25013;-60
2023/04/07 04:59:05;;;;;;;;;5.00;5.00;;;;;;;;117927;1177;25285;-60
2023/04/07 05:01:33;;;;;;;;;3.67;3.67;;;;;;;;117907;1180;24707;-59
2023/04/07 05:04:02;;;;;;;;;6.67;5.00;;;;;;;;117886;1182;25191;-60
2023/04/07 05:06:31;;;;;;;;;4.00;4.00;;;;;;;;117909;1177;24796;-59
2023/04/07 05:09:00;;;;;;;;;3.67;3.67;;;;;;;;117920;1191;25005;-59
2023/04/07 05:11:28;;;;;;;;;6.75;5.00;;;;;;;;117836;1181;25407;-60
2023/04/07 05:13:57;;;;;;;;;6.00;6.00;;;;;;;;117883;1178;25220;-61
2023/04/07 05:16:25;;;;;;;;;5.67;5.00;;;;;;;;117878;1177;25598;-61
2023/04/07 05:18:54;;;;;;;;;4.00;4.00;;;;;;;;117982;1177;25545;-61
2023/04/07 05:21:22;;;;;;;;;5.25;4.75;;;;;;;;117934;1179;25394;-59
2023/04/07 05:23:51;;;;;;;;;8.00;6.33;;;;;;;;117903;1190;24981;-59
2023/04/07 05:26:20;;;;;;;;;5.33;5.33;;;;;;;;117914;1181;25016;-59
2023/04/07 05:28:48;;;;;;;;;8.50;7.50;;;;;;;;117957;1180;25693;-60
2023/04/07 05:31:17;;;;;;;;;9.50;6.75;;;;;;;;117916;1191;24843;-59
2023/04/07 05:33:45;;;;;;;;;7.00;6.33;;;;;;;;117901;1181;25312;-59
2023/04/07 05:36:15;;;;;;;;;5.67;5.33;;;;;;;;117932;1191;25634;-60
2023/04/07 05:38:43;;;;;;;;;6.33;5.00;;;;;;;;117870;1179;26615;-59
2023/04/07 05:41:12;;;;;;;;;8.33;8.33;;;;;;;;117904;1186;25292;-59
2023/04/07 05:43:40;;;;;;;;;8.75;8.00;;;;;;;;117863;1180;25260;-59
2023/04/07 05:46:08;;;;;;;;;11.67;9.00;;;;;;;;117918;1177;25136;-59
2023/04/07 05:48:37;;;;;;;;;14.50;10.50;;;;;;;;117867;1177;25170;-59
2023/04/07 05:51:05;;;;;;;;;12.00;10.33;;;;;;;;117873;1183;24917;-59
2023/04/07 05:53:34;;;;;;;;;15.75;10.25;;;;;;;;119887;1182;25187;-61
2023/04/07 05:56:02;;;;;;;;;15.00;10.25;;;;;;;;119120;1191;25287;-60
2023/04/07 05:58:31;;;;;;;;;14.50;10.00;;;;;;;;117890;1179;24952;-63
2023/04/07 06:01:00;;;;;;;;;22.00;13.00;;;;;;;;117900;1178;25152;-70
2023/04/07 06:03:28;;;;;;;;;14.67;11.00;;;;;;;;117898;1191;25136;-61
2023/04/07 06:05:57;;;;;;;;;10.25;6.25;;;;;;;;117850;1177;25629;-60
2023/04/07 06:08:26;;;;;;;;;22.67;17.00;;;;;;;;118010;1177;25064;-61
2023/04/07 06:10:55;;;;;;;;;15.75;12.50;;;;;;;;117895;1190;25081;-60
2023/04/07 06:13:23;;;;;;;;;20.75;16.25;;;;;;;;117911;1182;25481;-60
2023/04/07 06:15:55;;;;;;;;;22.00;19.00;;;;;;;;117866;1178;25321;-61
2023/04/07 06:18:23;;;;;;;;;22.50;17.00;;;;;;;;117886;1187;24810;-62
2023/04/07 06:20:52;;;;;;;;;24.00;20.00;;;;;;;;117853;1188;25486;-63
2023/04/07 06:23:20;;;;;;;;;21.25;17.25;;;;;;;;117844;1177;25049;-61
2023/04/07 06:25:51;;;;;;;;;19.50;15.25;;;;;;;;117885;1177;25568;-60
2023/04/07 06:28:20;;;;;;;;;21.00;16.00;;;;;;;;117867;1179;24911;-60
2023/04/07 06:30:48;;;;;;;;;19.00;14.25;;;;;;;;117901;1177;24791;-59
2023/04/07 06:33:18;;;;;;;;;18.50;14.50;;;;;;;;117822;1179;24851;-59
2023/04/07 06:35:46;;;;;;;;;19.33;14.33;;;;;;;;117903;1177;24979;-60
2023/04/07 06:38:15;;;;;;;;;16.00;13.67;;;;;;;;117826;1190;25451;-59
2023/04/07 06:40:43;;;;;;;;;17.25;12.00;;;;;;;;117905;1177;25672;-59
2023/04/07 06:43:12;;;;;;;;;14.00;13.75;;;;;;;;117863;1183;24854;-60
2023/04/07 06:45:40;;;;;;;;;18.67;13.00;;;;;;;;117922;1178;25551;-56
2023/04/07 06:48:09;;;;;;;;;14.25;12.00;;;;;;;;117925;1177;25269;-56
2023/04/07 06:50:38;;;;;;;;;17.50;14.00;;;;;;;;117961;1177;25086;-56
2023/04/07 06:53:06;;;;;;;;;14.50;11.50;;;;;;;;117925;1190;25331;-56
2023/04/07 06:55:35;;;;;;;;;10.33;9.67;;;;;;;;117940;1181;24899;-55
2023/04/07 06:58:03;;;;;;;;;14.75;14.75;;;;;;;;117918;1178;25468;-56
2023/04/07 07:00:32;;;;;;;;;16.50;14.00;;;;;;;;117915;1189;24906;-56
2023/04/07 07:03:01;;;;;;;;;15.75;10.25;;;;;;;;117879;1181;25094;-57
2023/04/07 07:05:30;;;;;;;;;22.33;15.67;;;;;;;;117901;1177;25885;-57
2023/04/07 07:07:58;;;;;;;;;21.75;17.00;;;;;;;;117981;1189;24958;-57
2023/04/07 07:10:26;;;;;;;;;15.33;11.00;;;;;;;;117962;1177;24852;-57
2023/04/07 07:12:55;;;;;;;;;16.67;14.00;;;;;;;;117951;1178;24927;-57
2023/04/07 07:15:24;;;;;;;;;16.50;14.50;;;;;;;;117814;1179;25008;-57
2023/04/07 07:17:52;;;;;;;;;17.00;14.50;;;;;;;;118008;1180;25285;-57
2023/04/07 07:20:22;;;;;;;;;17.50;12.75;;;;;;;;117897;1178;25292;-57
2023/04/07 07:22:50;;;;;;;;;17.00;12.25;;;;;;;;117883;1180;24828;-58
2023/04/07 07:25:19;;;;;;;;;21.00;16.00;;;;;;;;117852;1179;24854;-57
2023/04/07 07:27:52;;;;;;;;;22.67;15.33;;;;;;;;117865;1184;24957;-57
2023/04/07 07:30:21;;;;;;;;;11.00;11.00;;;;;;;;117836;1177;25669;-59
2023/04/07 07:32:52;;;;;;;;;17.00;12.33;;;;;;;;117892;1179;26412;-57
2023/04/07 07:35:21;;;;;;;;;23.50;16.00;;;;;;;;117858;1177;24999;-56
2023/04/07 07:37:51;;;;;;;;;22.50;16.00;;;;;;;;117899;1178;25433;-57
2023/04/07 07:40:19;;;;;;;;;25.00;19.33;;;;;;;;117930;1177;25310;-57
2023/04/07 07:42:47;;;;;;;;;15.50;14.00;;;;;;;;117889;1177;25649;-56
2023/04/07 07:45:18;;;;;;;;;20.50;13.00;;;;;;;;117906;1190;25500;-56
2023/04/07 07:47:46;;;;;;;;;22.00;18.50;;;;;;;;117832;1180;24785;-56
2023/04/07 07:50:15;;;;;;;;;23.33;16.33;;;;;;;;117903;1177;25502;-57
2023/04/07 07:52:43;;;;;;;;;18.00;14.25;;;;;;;;117885;1177;25579;-56
2023/04/07 07:55:12;;;;;;;;;18.33;15.00;;;;;;;;117896;1190;24839;-56
2023/04/07 07:57:40;;;;;;;;;25.25;22.75;;;;;;;;117923;1186;25567;-56
2023/04/07 08:00:10;;;;;;;;;23.00;16.00;;;;;;;;117869;1183;25215;-56
2023/04/07 08:02:38;;;;;;;;;25.00;17.00;;;;;;;;117938;1190;24900;-56
2023/04/07 08:05:07;;;;;;;;;18.50;15.50;;;;;;;;117955;1177;25264;-56
2023/04/07 08:07:36;;;;;;;;;19.25;16.25;;;;;;;;117943;1177;24960;-56
2023/04/07 08:10:05;;;;;;;;;22.00;20.00;;;;;;;;117933;1190;24844;-56
2023/04/07 08:12:34;;;;;;;;;23.00;19.00;;;;;;;;117901;1177;25709;-56
2023/04/07 08:15:03;;;;;;;;;22.33;15.33;;;;;;;;117955;1190;25292;-56
2023/04/07 08:17:31;;;;;;;;;20.25;16.50;;;;;;;;117955;1177;25528;-56
2023/04/07 08:20:00;;;;;;;;;22.00;16.50;;;;;;;;117948;1177;25565;-56
2023/04/07 08:22:29;;;;;;;;;18.00;17.67;;;;;;;;117935;1177;25455;-56
2023/04/07 08:24:57;;;;;;;;;22.50;18.00;;;;;;;;117910;1180;25489;-56
2023/04/07 08:27:26;;;;;;;;;18.00;17.33;;;;;;;;117919;1177;24863;-56
2023/04/07 08:30:08;;;;;;;;;19.00;18.50;;;;;;;;117925;1190;26268;-56
2023/04/07 08:32:43;;;;;;;;;15.00;14.00;;;;;;;;117880;1184;25399;-57
2023/04/07 08:35:11;;;;;;;;;20.00;14.00;;;;;;;;117897;1177;25026;-56
2023/04/07 08:37:41;;;;;;;;;19.00;15.67;;;;;;;;117818;1179;25343;-57
2023/04/07 08:40:10;;;;;;;;;18.00;15.67;;;;;;;;117885;1177;24987;-57
2023/04/07 08:42:47;;;;;;;;;19.33;14.00;;;;;;;;117936;1185;25697;-57
2023/04/07 08:45:17;;;;;;;;;19.67;17.00;;;;;;;;117951;1182;25619;-57
2023/04/07 08:47:47;;;;;;;;;18.25;17.00;;;;;;;;117905;1183;25106;-57
2023/04/07 08:50:17;;;;;;;;;16.67;14.00;;;;;;;;117915;1177;25371;-56
2023/04/07 08:52:50;;;;;;;;;20.50;14.00;;;;;;;;117894;1190;25378;-57
2023/04/07 08:55:18;;;;;;;;;13.50;11.50;;;;;;;;117937;1179;25058;-57
2023/04/07 08:57:47;;;;;;;;;14.00;13.00;;;;;;;;117953;1177;24837;-56
2023/04/07 09:00:16;;;;;;;;;14.67;13.00;;;;;;;;117911;1181;25573;-57
2023/04/07 09:02:44;;;;;;;;;18.00;14.00;;;;;;;;117893;1177;25530;-56
2023/04/07 09:05:14;;;;;;;;;16.33;13.00;;;;;;;;117940;1181;24691;-57
2023/04/07 09:07:42;;;;;;;;;12.00;10.67;;;;;;;;117892;1180;24997;-56
2023/04/07 09:10:11;;;;;;;;;18.00;13.00;;;;;;;;118143;1184;24940;-58
2023/04/07 09:12:40;;;;;;;;;20.00;15.00;;;;;;;;118189;1190;25627;-60
2023/04/07 09:15:09;;;;;;;;;16.50;13.00;;;;;;;;118089;1178;25578;-58
2023/04/07 09:17:37;;;;;;;;;19.75;12.75;;;;;;;;118179;1176;24756;-57
2023/04/07 09:20:07;;;;;;;;;19.33;12.00;;;;;;;;118066;1176;24758;-56
2023/04/07 09:22:38;;;;;;;;;19.00;15.50;;;;;;;;118037;1190;25644;-56
2023/04/07 09:25:11;;;;;;;;;16.67;13.00;;;;;;;;118061;1182;24952;-57
2023/04/07 09:27:39;;;;;;;;;18.75;12.75;;;;;;;;118072;1177;25311;-57
2023/04/07 09:30:14;;;;;;;;;15.33;12.33;;;;;;;;117955;1184;25392;-57
2023/04/07 09:32:43;;;;;;;;;16.50;12.75;;;;;;;;118082;1183;24710;-56
2023/04/07 09:35:12;;;;;;;;;18.33;13.00;;;;;;;;117878;1179;25429;-57
2023/04/07 09:37:41;;;;;;;;;20.67;12.67;;;;;;;;117871;1178;25440;-57
2023/04/07 09:40:10;;;;;;;;;18.00;16.50;;;;;;;;117875;1190;25602;-56
2023/04/07 09:42:47;;;;;;;;;13.25;10.50;;;;;;;;117891;1181;25437;-57
2023/04/07 09:45:26;;;;;;;;;19.00;16.50;;;;;;;;117855;1183;25094;-56
2023/04/07 09:48:09;;;;;;;;;14.00;12.00;;;;;;;;117847;1190;25613;-56
2023/04/07 09:50:44;;;;;;;;;15.00;15.00;;;;;;;;117852;1190;24999;-55
2023/04/07 09:53:13;;;;;;;;;19.00;14.00;;;;;;;;117906;1190;25020;-57
2023/04/07 09:55:42;;;;;;;;;22.00;17.33;;;;;;;;117914;1177;25373;-56
2023/04/07 09:58:15;;;;;;;;;14.00;11.33;;;;;;;;117855;1180;25239;-56
2023/04/07 10:00:44;;;;;;;;;15.50;13.75;;;;;;;;117887;1179;25683;-56
2023/04/07 10:03:14;;;;;;;;;15.00;13.00;;;;;;;;117861;1179;25208;-56
2023/04/07 10:05:43;;;;;;;;;14.67;14.00;;;;;;;;117908;1177;25318;-56
2023/04/07 10:08:11;;;;;;;;;17.00;11.00;;;;;;;;117817;1190;25621;-56
2023/04/07 10:10:42;;;;;;;;;15.75;13.00;;;;;;;;117821;1178;25336;-56
2023/04/07 10:13:11;;;;;;;;;12.75;12.75;;;;;;;;117873;1180;25308;-55
2023/04/07 10:15:39;;;;;;;;;16.50;12.00;;;;;;;;117939;1177;24856;-57
2023/04/07 10:18:08;;;;;;;;;12.00;12.00;;;;;;;;117939;1184;25256;-56
2023/04/07 10:20:42;;;;;;;;;19.50;14.75;;;;;;;;117958;1179;25671;-56
2023/04/07 10:27:50;;;;;;;;;12.50;12.00;;;;;;;;118560;1182;25214;-67
2023/04/07 10:30:30;;;;;;;;;11.00;10.50;;;;;;;;117727;1183;24809;-68
2023/04/07 10:32:59;;;;;;;;;17.00;13.33;;;;;;;;117801;1181;25531;-69
2023/04/07 10:35:28;;;;;;;;;14.00;12.00;;;;;;;;117853;1179;26007;-65
2023/04/07 10:38:05;;;;;;;;;12.00;10.75;;;;;;;;117853;1188;24853;-67
2023/04/07 10:40:35;;;;;;;;;12.00;11.50;;;;;;;;117813;1192;24948;-66
2023/04/07 10:43:08;;;;;;;;;10.00;9.67;;;;;;;;117481;1182;25476;-67
2023/04/07 10:45:46;;;;;;;;;11.67;11.33;;;;;;;;117501;1182;25042;-65
2023/04/07 10:48:18;;;;;;;;;16.00;11.50;;;;;;;;117861;1180;25415;-67
2023/04/07 10:51:05;;;;;;;;;16.00;12.50;;;;;;;;117852;1179;24950;-67
2023/04/07 10:53:33;;;;;;;;;13.00;13.00;;;;;;;;117729;1179;25682;-66
2023/04/07 10:56:02;;;;;;;;;14.33;12.33;;;;;;;;117543;1180;24793;-68
2023/04/07 10:58:32;;;;;;;;;15.75;11.50;;;;;;;;117795;1187;25397;-72
2023/04/07 11:01:07;;;;;;;;;12.50;12.00;;;;;;;;117813;1189;25214;-74
2023/04/07 11:03:38;;;;;;;;;12.25;9.75;;;;;;;;117858;1179;25178;-68
2023/04/07 11:06:12;;;;;;;;;11.50;10.00;;;;;;;;117846;1192;24961;-66
2023/04/07 11:08:45;;;;;;;;;14.33;12.00;;;;;;;;117824;1183;25003;-67
2023/04/07 11:11:36;;;;;;;;;19.50;12.50;;;;;;;;117808;1192;25140;-67
2023/04/07 11:14:05;;;;;;;;;15.00;12.75;;;;;;;;117811;1180;25576;-66
2023/04/07 11:16:36;;;;;;;;;14.33;10.33;;;;;;;;117926;1179;25388;-67
2023/04/07 11:19:04;;;;;;;;;14.67;14.67;;;;;;;;117916;1179;24925;-67
2023/04/07 11:21:33;;;;;;;;;13.50;11.75;;;;;;;;117879;1180;25252;-68
2023/04/07 11:24:01;;;;;;;;;12.67;12.00;;;;;;;;117880;1179;24824;-67
2023/04/07 11:26:37;;;;;;;;;16.00;13.50;;;;;;;;117821;1189;24968;-67
2023/04/07 11:29:05;;;;;;;;;14.00;14.00;;;;;;;;117929;1179;25648;-67
2023/04/07 11:31:33;;;;;;;;;12.00;11.00;;;;;;;;117847;1180;24805;-67
2023/04/07 11:34:04;;;;;;;;;11.75;10.75;;;;;;;;117462;1192;24718;-67
2023/04/07 11:36:36;;;;;;;;;11.25;10.50;;;;;;;;117885;1179;25242;-68
2023/04/07 11:39:05;;;;;;;;;10.33;9.33;;;;;;;;117882;1186;24825;-66
2023/04/07 11:41:45;;;;;;;;;10.00;8.67;;;;;;;;117501;1190;25413;-71
2023/04/07 11:44:13;;;;;;;;;10.00;8.00;;;;;;;;117843;1192;26016;-67
2023/04/07 11:46:55;;;;;;;;;15.50;11.75;;;;;;;;117791;1182;25264;-67
2023/04/07 11:49:30;;;;;;;;;11.25;9.25;;;;;;;;117859;1192;24822;-66
2023/04/07 11:52:07;;;;;;;;;14.00;9.00;;;;;;;;117874;1180;24901;-66
2023/04/07 11:54:42;;;;;;;;;11.00;10.00;;;;;;;;117924;1179;26184;-66
2023/04/07 11:57:11;;;;;;;;;14.33;12.33;;;;;;;;117842;1183;24841;-69
2023/04/07 11:59:40;;;;;;;;;12.67;11.00;;;;;;;;117823;1180;25082;-67
2023/04/07 12:02:09;;;;;;;;;13.25;12.00;;;;;;;;117963;1181;24742;-66
2023/04/07 12:04:39;;;;;;;;;9.00;9.00;;;;;;;;117935;1180;25462;-67
2023/04/07 12:07:11;;;;;;;;;13.00;11.00;;;;;;;;117818;1180;25245;-67
2023/04/07 12:09:39;;;;;;;;;11.33;11.00;;;;;;;;117821;1181;25382;-66
2023/04/07 12:12:09;;;;;;;;;12.00;11.00;;;;;;;;117924;1186;25343;-67
2023/04/07 12:14:37;;;;;;;;;18.67;14.33;;;;;;;;117879;1179;25450;-67
2023/04/07 12:17:08;;;;;;;;;13.33;12.00;;;;;;;;117870;1181;25141;-68
2023/04/07 12:19:38;;;;;;;;;12.00;12.00;;;;;;;;117887;1179;25084;-66
2023/04/07 12:22:06;;;;;;;;;17.00;12.67;;;;;;;;117832;1181;25558;-67
2023/04/07 12:24:35;;;;;;;;;11.33;11.33;;;;;;;;117845;1192;25002;-67
2023/04/07 12:27:03;;;;;;;;;13.00;10.00;;;;;;;;117920;1180;24738;-67
2023/04/07 12:29:33;;;;;;;;;11.00;10.00;;;;;;;;117807;1182;25356;-67
2023/04/07 12:32:02;;;;;;;;;15.25;11.00;;;;;;;;117830;1180;25518;-67
2023/04/07 12:34:31;;;;;;;;;16.50;14.50;;;;;;;;117877;1181;25767;-69
2023/04/07 12:37:00;;;;;;;;;15.50;12.75;;;;;;;;117858;1179;24729;-66
2023/04/07 12:39:28;;;;;;;;;10.00;8.00;;;;;;;;117886;1186;24736;-67
2023/04/07 12:41:57;;;;;;;;;18.00;12.00;;;;;;;;117793;1192;25403;-67
2023/04/07 12:44:25;;;;;;;;;14.00;12.33;;;;;;;;117897;1192;25349;-67
2023/04/07 12:46:53;;;;;;;;;12.25;11.50;;;;;;;;117871;1192;24797;-69
2023/04/07 12:49:22;;;;;;;;;12.50;10.25;;;;;;;;117860;1181;24782;-67
2023/04/07 12:51:51;;;;;;;;;14.00;10.50;;;;;;;;117909;1192;24765;-68
2023/04/07 12:54:19;;;;;;;;;14.00;13.00;;;;;;;;117781;1180;25068;-73
2023/04/07 12:56:48;;;;;;;;;12.67;10.33;;;;;;;;117884;1181;25168;-67
2023/04/07 12:59:16;;;;;;;;;12.00;10.50;;;;;;;;117950;1181;25597;-67
2023/04/07 13:01:45;;;;;;;;;11.75;11.25;;;;;;;;117533;1180;25619;-67
2023/04/07 13:04:16;;;;;;;;;10.67;9.00;;;;;;;;117828;1181;24937;-67
2023/04/07 13:06:45;;;;;;;;;13.50;11.00;;;;;;;;117929;1179;26469;-67
2023/04/07 13:09:14;;;;;;;;;10.00;10.00;;;;;;;;117779;1179;24838;-70
2023/04/07 13:11:42;;;;;;;;;22.00;20.00;;;;;;;;117820;1188;25243;-67
2023/04/07 13:14:11;;;;;;;;;22.00;19.75;;;;;;;;117828;1179;25410;-67
2023/04/07 13:16:39;;;;;;;;;18.33;17.00;;;;;;;;117756;1179;25329;-68
2023/04/07 13:19:08;;;;;;;;;17.50;17.00;;;;;;;;117845;1180;25667;-73
2023/04/07 13:21:36;;;;;;;;;10.75;10.75;;;;;;;;117806;1183;24915;-68
2023/04/07 13:24:13;;;;;;;;;17.67;14.33;;;;;;;;117434;1180;25666;-71
2023/04/07 13:26:41;;;;;;;;;21.00;15.00;;;;;;;;117794;1180;25628;-71
2023/04/07 13:29:10;;;;;;;;;12.67;9.33;;;;;;;;117802;1181;24984;-68
2023/04/07 13:31:38;;;;;;;;;16.50;15.00;;;;;;;;117749;1188;24836;-70
2023/04/07 13:34:07;;;;;;;;;18.50;13.50;;;;;;;;117798;1192;25148;-70
2023/04/07 13:36:36;;;;;;;;;11.00;10.75;;;;;;;;117823;1179;25124;-72
2023/04/07 13:39:05;;;;;;;;;14.00;13.00;;;;;;;;117824;1184;25588;-71
2023/04/07 13:41:33;;;;;;;;;9.00;8.00;;;;;;;;117811;1180;25166;-71
2023/04/07 13:44:02;;;;;;;;;11.50;10.50;;;;;;;;117764;1186;25030;-71
2023/04/07 13:46:30;;;;;;;;;18.00;13.00;;;;;;;;117680;1182;25624;-67
2023/04/07 13:48:59;;;;;;;;;12.50;10.75;;;;;;;;119680;1193;25663;-65
2023/04/07 13:51:28;;;;;;;;;13.50;12.00;;;;;;;;119077;1193;25663;-67
2023/04/07 13:53:56;;;;;;;;;13.00;13.00;;;;;;;;117705;1180;25289;-66
2023/04/07 13:56:24;;;;;;;;;14.00;11.50;;;;;;;;117621;1179;25049;-67
2023/04/07 13:58:53;;;;;;;;;18.33;17.00;;;;;;;;117760;1179;25310;-73
2023/04/07 14:01:21;;;;;;;;;15.00;12.25;;;;;;;;117425;1184;25406;-72
2023/04/07 14:03:51;;;;;;;;;16.50;12.50;;;;;;;;117776;1180;25289;-71
2023/04/07 14:06:23;;;;;;;;;12.33;11.00;;;;;;;;117762;1181;25257;-68
2023/04/07 14:08:52;;;;;;;;;12.00;11.33;;;;;;;;117763;1192;25288;-72
2023/04/07 14:11:21;;;;;;;;;18.33;15.67;;;;;;;;117822;1189;25207;-69
2023/04/07 14:13:51;;;;;;;;;12.00;11.00;;;;;;;;117816;1183;25052;-69
2023/04/07 14:16:19;;;;;;;;;10.75;9.75;;;;;;;;117853;1179;25434;-66
2023/04/07 14:18:50;;;;;;;;;13.75;12.50;;;;;;;;117821;1179;25570;-68
2023/04/07 14:21:18;;;;;;;;;16.33;11.67;;;;;;;;117825;1181;25025;-68
2023/04/07 14:23:47;;;;;;;;;12.25;11.00;;;;;;;;117833;1179;25062;-66
2023/04/07 14:26:15;;;;;;;;;14.33;13.33;;;;;;;;117452;1190;24901;-66
2023/04/07 14:28:44;;;;;;;;;13.00;11.25;;;;;;;;117543;1180;24810;-65
2023/04/07 14:31:14;;;;;;;;;12.00;12.00;;;;;;;;117806;1184;24798;-67
2023/04/07 14:33:44;;;;;;;;;11.00;9.00;;;;;;;;117797;1192;25542;-67
2023/04/07 14:36:15;;;;;;;;;12.00;10.25;;;;;;;;117825;1180;24931;-66